Terminal Aerodrome Forecast
Issued by NWS St Louis, MO

Home | Current Version | Previous Version | Text Only | Print | Product List | Glossary On
Versions: 1 2 3 4 5 6 7 8 9 10 11 12 13 14 15 16 17 18
000
FTUS43 KLSX 151300 AAA
TAFCOU
TAF AMD
KCOU 151301Z 1513/1612 15013KT P6SM BKN015
     FM151700 20014G22KT P6SM VCSH BKN025
     FM152300 25015G23KT P6SM OVC025
     FM160700 29015G25KT P6SM OVC015=

USA.gov is the U.S. government's official web portal to all federal, state and local government web resources and services.